createdAt,value
2022-12-18T00:04:43.016Z,0
2022-12-18T00:05:23.497Z,0
2022-12-18T00:06:04.051Z,0
2022-12-18T00:06:44.615Z,0
2022-12-18T00:08:58.816Z,0
2022-12-18T00:09:40.548Z,0
2022-12-18T00:10:19.860Z,0
2022-12-18T00:11:00.634Z,0
2022-12-18T00:15:03.447Z,0
2022-12-18T00:15:43.994Z,0
2022-12-18T00:16:24.544Z,0
2022-12-18T00:17:04.996Z,0
2022-12-18T00:17:45.513Z,0
2022-12-18T00:18:26.805Z,0
2022-12-18T00:19:07.338Z,0
2022-12-18T00:19:47.916Z,0
2022-12-18T00:20:28.359Z,0
2022-12-18T00:25:14.132Z,0
2022-12-18T00:25:54.615Z,0
2022-12-18T00:26:35.131Z,0
2022-12-18T00:27:15.680Z,0
2022-12-18T00:27:56.197Z,0
2022-12-18T00:28:36.720Z,0
2022-12-18T00:29:17.232Z,0
2022-12-18T00:29:57.734Z,0
2022-12-18T00:30:38.282Z,0
2022-12-18T00:36:43.879Z,0
2022-12-18T00:39:21.989Z,0
2022-12-18T00:40:02.504Z,0
2022-12-18T00:40:43.009Z,0
2022-12-18T00:41:23.527Z,0
2022-12-18T00:45:26.747Z,0
2022-12-18T00:46:07.287Z,0
2022-12-18T00:48:45.933Z,0
2022-12-18T00:51:25.442Z,0
2022-12-18T00:52:05.941Z,0
2022-12-18T00:52:46.468Z,0
2022-12-18T00:53:27.017Z,0
2022-12-18T00:57:30.216Z,0
2022-12-18T00:58:10.739Z,0
2022-12-18T00:58:51.276Z,0
2022-12-18T00:59:31.785Z,0
2022-12-18T01:00:12.324Z,0
2022-12-18T01:00:52.909Z,0
2022-12-18T01:03:31.340Z,0
2022-12-18T01:04:11.838Z,0
2022-12-18T01:04:52.350Z,0
2022-12-18T01:05:32.854Z,0
2022-12-18T01:09:35.956Z,0
2022-12-18T01:10:16.499Z,0
2022-12-18T01:10:57.005Z,0
2022-12-18T01:11:37.520Z,0
2022-12-18T01:12:18.057Z,0
2022-12-18T01:12:59.262Z,0
2022-12-18T01:13:40.097Z,0
2022-12-18T01:20:26.395Z,0
2022-12-18T01:21:06.899Z,0
2022-12-18T01:21:47.422Z,0
2022-12-18T01:22:27.959Z,0
2022-12-18T01:23:08.445Z,0
2022-12-18T01:23:49.067Z,0
2022-12-18T01:24:29.598Z,0
2022-12-18T01:25:10.220Z,0
2022-12-18T01:25:50.724Z,0
2022-12-18T01:30:36.059Z,0
2022-12-18T01:31:17.455Z,0
2022-12-18T01:31:57.986Z,0
2022-12-18T01:32:38.457Z,0
2022-12-18T01:33:18.972Z,0
2022-12-18T01:33:59.550Z,0
2022-12-18T01:34:40.834Z,0
2022-12-18T01:41:26.194Z,0
2022-12-18T01:42:06.710Z,0
2022-12-18T01:42:47.920Z,0
2022-12-18T01:43:28.463Z,0
2022-12-18T01:45:41.506Z,0
2022-12-18T01:46:21.991Z,0
2022-12-18T01:47:03.145Z,0
2022-12-18T01:47:44.966Z,0
2022-12-18T01:50:00.137Z,0
2022-12-18T01:50:40.628Z,0
2022-12-18T01:51:21.120Z,0
2022-12-18T01:52:03.267Z,0
2022-12-18T01:54:22.702Z,0
2022-12-18T01:55:03.225Z,0
2022-12-18T01:55:43.741Z,0
2022-12-18T01:56:25.182Z,0
2022-12-18T01:58:58.508Z,0
2022-12-18T01:59:39.023Z,0
2022-12-18T02:00:19.606Z,0
2022-12-18T02:01:00.175Z,0
2022-12-18T02:05:03.227Z,0
2022-12-18T02:05:43.756Z,0
2022-12-18T02:06:24.365Z,0
2022-12-18T02:07:04.886Z,0
2022-12-18T02:07:45.410Z,0
2022-12-18T02:08:25.959Z,0
2022-12-18T02:09:06.439Z,0
2022-12-18T02:09:47.629Z,0
2022-12-18T02:10:28.154Z,0
2022-12-18T02:15:53.304Z,0
2022-12-18T02:18:31.722Z,0
2022-12-18T02:19:12.216Z,0
2022-12-18T02:19:52.749Z,0
2022-12-18T02:20:33.286Z,0
2022-12-18T02:24:11.046Z,0
2022-12-18T02:24:51.562Z,0
2022-12-18T02:25:32.112Z,0
2022-12-18T02:26:12.635Z,0
2022-12-18T02:26:53.149Z,0
2022-12-18T02:29:31.753Z,0
2022-12-18T02:30:12.164Z,0
2022-12-18T02:30:52.765Z,0
2022-12-18T02:31:33.330Z,0
2022-12-18T02:35:37.352Z,0
2022-12-18T02:36:17.883Z,0
2022-12-18T02:36:58.422Z,0
2022-12-18T02:37:38.956Z,0
2022-12-18T02:38:19.506Z,0
2022-12-18T02:40:58.894Z,0
2022-12-18T02:41:40.085Z,0
2022-12-18T02:42:20.589Z,0
2022-12-18T02:43:01.207Z,0
2022-12-18T02:45:03.644Z,0
2022-12-18T02:45:44.131Z,0
2022-12-18T02:46:24.560Z,0
2022-12-18T02:47:05.982Z,0
2022-12-18T02:47:46.497Z,0
2022-12-18T02:48:27.031Z,0
2022-12-18T02:49:07.535Z,0
2022-12-18T02:57:27.100Z,0
2022-12-18T02:58:08.588Z,0
2022-12-18T02:58:49.680Z,0
2022-12-18T02:59:30.190Z,0
2022-12-18T03:02:02.019Z,0
2022-12-18T03:02:42.360Z,0
2022-12-18T03:03:22.763Z,0
2022-12-18T03:04:03.866Z,0
2022-12-18T03:06:18.422Z,0
2022-12-18T03:06:58.979Z,0
2022-12-18T03:07:39.481Z,0
2022-12-18T03:08:20.036Z,0
2022-12-18T03:11:57.357Z,0
2022-12-18T03:12:42.267Z,0
2022-12-18T03:13:25.270Z,0
2022-12-18T03:14:09.368Z,0
2022-12-18T03:14:50.768Z,0
2022-12-18T03:15:33.781Z,0
2022-12-18T03:18:04.482Z,0
2022-12-18T03:18:44.913Z,0
2022-12-18T03:19:25.577Z,0
2022-12-18T03:20:06.261Z,0
2022-12-18T03:21:28.154Z,0
2022-12-18T03:22:08.764Z,0
2022-12-18T03:22:49.461Z,0
2022-12-18T03:23:30.094Z,0
2022-12-18T03:24:10.517Z,0
2022-12-18T03:24:51.068Z,0
2022-12-18T03:25:31.670Z,0
2022-12-18T03:26:12.184Z,0
2022-12-18T03:26:52.758Z,0
2022-12-18T03:29:46.334Z,0
2022-12-18T03:30:26.891Z,0
2022-12-18T03:31:07.445Z,0
2022-12-18T03:31:47.950Z,0
2022-12-18T03:35:51.362Z,0
2022-12-18T03:36:31.910Z,0
2022-12-18T03:37:12.463Z,0
2022-12-18T03:37:53.050Z,0
2022-12-18T03:38:33.590Z,0
2022-12-18T03:39:15.124Z,0
2022-12-18T03:39:55.639Z,0
2022-12-18T03:44:10.869Z,0
2022-12-18T03:44:51.427Z,0
2022-12-18T03:45:33.615Z,0
2022-12-18T03:46:14.222Z,0
2022-12-18T03:48:27.338Z,0
2022-12-18T03:49:07.737Z,0
2022-12-18T03:49:48.284Z,0
2022-12-18T03:50:28.825Z,0
2022-12-18T03:54:32.027Z,0
2022-12-18T03:55:12.659Z,0
2022-12-18T03:55:53.165Z,0
2022-12-18T03:56:33.730Z,0
2022-12-18T03:57:15.149Z,0
2022-12-18T03:57:55.703Z,0
2022-12-18T03:58:36.209Z,0
2022-12-18T04:01:14.801Z,0
2022-12-18T04:01:55.205Z,0
2022-12-18T04:02:35.822Z,0
2022-12-18T04:03:16.244Z,0
2022-12-18T04:07:30.842Z,0
2022-12-18T04:08:11.373Z,0
2022-12-18T04:08:52.047Z,0
2022-12-18T04:09:32.575Z,0
2022-12-18T04:13:35.842Z,0
2022-12-18T04:14:18.112Z,0
2022-12-18T04:16:54.817Z,0
2022-12-18T04:17:35.384Z,0
2022-12-18T04:18:15.923Z,0
2022-12-18T04:18:56.445Z,0
2022-12-18T04:25:35.425Z,0
2022-12-18T04:26:15.952Z,0
2022-12-18T04:26:56.455Z,0
2022-12-18T04:27:37.080Z,0
2022-12-18T04:33:12.867Z,0
2022-12-18T04:33:53.409Z,0
2022-12-18T04:34:33.959Z,0
2022-12-18T04:35:14.473Z,0
2022-12-18T04:39:17.637Z,0
2022-12-18T04:39:58.127Z,0
2022-12-18T04:40:38.645Z,0
2022-12-18T04:41:19.184Z,0
2022-12-18T04:41:59.721Z,0
2022-12-18T04:42:40.292Z,0
2022-12-18T04:43:20.890Z,0
2022-12-18T04:44:01.329Z,0
2022-12-18T04:44:41.992Z,0
2022-12-18T04:45:22.402Z,0
2022-12-18T04:50:58.192Z,0
2022-12-18T04:51:38.594Z,0
2022-12-18T04:52:19.112Z,0
2022-12-18T04:53:00.342Z,0
2022-12-18T04:56:22.923Z,0
2022-12-18T04:57:03.535Z,0
2022-12-18T04:57:44.025Z,0
2022-12-18T04:58:24.525Z,0
2022-12-18T04:59:05.083Z,0
2022-12-18T04:59:45.616Z,0
2022-12-18T05:00:26.125Z,0
2022-12-18T05:01:06.668Z,0
2022-12-18T05:01:47.333Z,0
2022-12-18T05:02:27.763Z,0
2022-12-18T05:06:43.359Z,0
2022-12-18T05:07:23.749Z,0
2022-12-18T05:08:05.914Z,0
2022-12-18T05:08:47.271Z,0
2022-12-18T05:11:01.778Z,0
2022-12-18T05:11:42.284Z,0
2022-12-18T05:12:22.788Z,0
2022-12-18T05:13:03.373Z,0
2022-12-18T05:16:26.863Z,0
2022-12-18T05:17:07.972Z,0
2022-12-18T05:17:48.513Z,0
2022-12-18T05:18:29.008Z,0
2022-12-18T05:19:10.481Z,0
2022-12-18T05:19:50.992Z,0
2022-12-18T05:25:16.593Z,0
2022-12-18T05:27:55.041Z,0
2022-12-18T05:28:36.308Z,0
2022-12-18T05:29:16.833Z,0
2022-12-18T05:29:57.359Z,0
2022-12-18T05:33:20.163Z,0
2022-12-18T05:34:00.658Z,0
2022-12-18T05:34:41.200Z,0
2022-12-18T05:35:21.717Z,0
2022-12-18T05:36:02.237Z,0
2022-12-18T05:38:40.810Z,0
2022-12-18T05:39:21.198Z,0
2022-12-18T05:40:01.736Z,0
2022-12-18T05:40:42.278Z,0
2022-12-18T05:43:35.834Z,0
2022-12-18T05:44:16.353Z,0
2022-12-18T05:44:56.878Z,0
2022-12-18T05:45:37.392Z,0
2022-12-18T05:50:33.186Z,0
2022-12-18T05:51:13.722Z,0
2022-12-18T05:51:54.267Z,0
2022-12-18T05:52:34.781Z,0
2022-12-18T05:54:47.921Z,0
2022-12-18T05:55:28.341Z,0
2022-12-18T05:56:10.394Z,0
2022-12-18T05:56:50.932Z,0
2022-12-18T05:59:20.720Z,0
2022-12-18T06:00:01.241Z,0
2022-12-18T06:00:41.795Z,0
2022-12-18T06:01:22.364Z,0
2022-12-18T06:06:58.055Z,0
2022-12-18T06:07:38.606Z,0
2022-12-18T06:08:19.226Z,0
2022-12-18T06:09:00.396Z,0
2022-12-18T06:11:39.518Z,0
2022-12-18T06:12:19.891Z,0
2022-12-18T06:13:00.408Z,0
2022-12-18T06:13:41.221Z,0
2022-12-18T06:17:04.104Z,0
2022-12-18T06:17:44.625Z,0
2022-12-18T06:18:25.122Z,0
2022-12-18T06:19:05.724Z,0
2022-12-18T06:19:46.224Z,0
2022-12-18T06:20:30.516Z,0
2022-12-18T06:21:07.247Z,0
2022-12-18T06:21:47.811Z,0
2022-12-18T06:22:28.333Z,0
2022-12-18T06:23:08.886Z,0
2022-12-18T06:29:54.498Z,0
2022-12-18T06:30:35.687Z,0
2022-12-18T06:31:16.273Z,0
2022-12-18T06:31:56.904Z,0
2022-12-18T06:32:37.427Z,0
2022-12-18T06:33:17.977Z,0
2022-12-18T06:33:58.523Z,0
2022-12-18T06:37:33.298Z,0
2022-12-18T06:38:13.856Z,0
2022-12-18T06:38:54.364Z,0
2022-12-18T06:39:34.899Z,0
2022-12-18T06:42:28.586Z,0
2022-12-18T06:43:08.984Z,0
2022-12-18T06:43:49.521Z,0
2022-12-18T06:44:30.042Z,0
2022-12-18T06:47:39.303Z,0
2022-12-18T06:48:19.960Z,0
2022-12-18T06:49:00.993Z,0
2022-12-18T06:49:42.315Z,0
2022-12-18T06:52:01.936Z,0
2022-12-18T06:52:42.527Z,0
2022-12-18T06:53:23.027Z,0
2022-12-18T06:54:03.577Z,0
2022-12-18T06:56:57.474Z,0
2022-12-18T06:57:39.093Z,0
2022-12-18T06:58:19.466Z,0
2022-12-18T07:00:58.621Z,0
2022-12-18T07:01:39.253Z,0
2022-12-18T07:02:19.750Z,0
2022-12-18T07:03:00.265Z,0
2022-12-18T07:07:15.209Z,0
2022-12-18T07:07:55.722Z,0
2022-12-18T07:08:36.238Z,0
2022-12-18T07:09:16.762Z,0
2022-12-18T07:11:38.543Z,0
2022-12-18T07:12:20.429Z,0
2022-12-18T07:13:01.069Z,0
2022-12-18T07:13:41.770Z,0
2022-12-18T07:15:55.173Z,0
2022-12-18T07:16:35.608Z,0
2022-12-18T07:17:16.194Z,0
2022-12-18T07:17:56.772Z,0
2022-12-18T07:21:30.596Z,0
2022-12-18T07:22:11.146Z,0
2022-12-18T07:22:56.194Z,0
2022-12-18T07:23:33.537Z,5
2022-12-18T07:24:55.454Z,5
2022-12-18T07:25:35.958Z,5
2022-12-18T07:26:16.560Z,5
2022-12-18T07:26:58.008Z,5
2022-12-18T07:27:38.553Z,5
2022-12-18T07:28:19.975Z,5
2022-12-18T07:30:32.860Z,5
2022-12-18T07:31:13.487Z,5
2022-12-18T07:31:54.537Z,5
2022-12-18T07:32:35.023Z,5
2022-12-18T07:35:57.626Z,5
2022-12-18T07:36:38.154Z,5
2022-12-18T07:37:18.660Z,5
2022-12-18T07:37:59.179Z,5
2022-12-18T07:38:39.704Z,5
2022-12-18T07:39:20.210Z,5
2022-12-18T07:40:00.729Z,5
2022-12-18T07:40:41.259Z,5
2022-12-18T07:41:21.806Z,5
2022-12-18T07:42:02.297Z,10
2022-12-18T07:48:49.315Z,10
2022-12-18T07:49:28.255Z,10
2022-12-18T07:52:06.752Z,10
2022-12-18T07:52:47.311Z,10
2022-12-18T07:53:27.860Z,10
2022-12-18T07:54:08.425Z,15
2022-12-18T07:58:11.520Z,15
2022-12-18T07:58:52.155Z,15
2022-12-18T07:59:32.545Z,15
2022-12-18T08:02:11.218Z,15
2022-12-18T08:02:51.567Z,15
2022-12-18T08:03:32.030Z,15
2022-12-18T08:04:12.577Z,15
2022-12-18T08:07:36.063Z,20
2022-12-18T08:08:16.621Z,20
2022-12-18T08:10:55.260Z,20
2022-12-18T08:11:35.782Z,20
2022-12-18T08:12:16.390Z,20
2022-12-18T08:13:00.088Z,20
2022-12-18T08:17:00.168Z,25
2022-12-18T08:17:40.637Z,25
2022-12-18T08:20:19.154Z,25
2022-12-18T08:20:59.668Z,25
2022-12-18T08:21:40.207Z,25
2022-12-18T08:22:20.771Z,25
2022-12-18T08:26:23.879Z,30
2022-12-18T08:27:28.221Z,30
2022-12-18T08:29:42.958Z,30
2022-12-18T08:30:23.374Z,30
2022-12-18T08:31:03.914Z,30
2022-12-18T08:31:44.420Z,30
2022-12-18T08:35:07.753Z,35
2022-12-18T08:35:48.270Z,35
2022-12-18T08:38:27.523Z,35
2022-12-18T08:39:08.075Z,35
2022-12-18T08:39:48.590Z,35
2022-12-18T08:40:29.233Z,35
2022-12-18T08:44:32.388Z,40
2022-12-18T08:45:13.015Z,40
2022-12-18T08:45:53.604Z,40
2022-12-18T08:46:34.097Z,45
2022-12-18T08:47:14.490Z,45
2022-12-18T08:47:54.997Z,45
2022-12-18T08:48:35.585Z,45
2022-12-18T08:49:16.098Z,45
2022-12-18T08:49:56.633Z,50
2022-12-18T08:50:37.134Z,50
2022-12-18T08:56:15.754Z,60
2022-12-18T08:56:58.015Z,60
2022-12-18T08:57:39.360Z,60
2022-12-18T08:58:22.740Z,60
2022-12-18T09:00:36.402Z,60
2022-12-18T09:01:16.838Z,55
2022-12-18T09:01:57.394Z,55
2022-12-18T09:02:37.916Z,55
2022-12-18T09:05:20.862Z,55
2022-12-18T09:06:01.438Z,60
2022-12-18T09:06:41.987Z,60
2022-12-18T09:07:22.505Z,60
2022-12-18T09:08:03.022Z,60
2022-12-18T09:08:43.768Z,60
2022-12-18T09:09:24.088Z,60
2022-12-18T09:10:04.603Z,60
2022-12-18T09:10:45.124Z,60
2022-12-18T09:11:25.976Z,65
2022-12-18T09:17:01.932Z,75
2022-12-18T09:17:42.236Z,75
2022-12-18T09:18:22.779Z,80
2022-12-18T09:19:03.297Z,80
2022-12-18T09:21:16.333Z,90
2022-12-18T09:21:56.855Z,90
2022-12-18T09:22:37.384Z,85
2022-12-18T09:23:17.902Z,85
2022-12-18T09:27:21.102Z,80
2022-12-18T09:28:01.637Z,80
2022-12-18T09:28:42.727Z,80
2022-12-18T09:31:20.600Z,85
2022-12-18T09:32:01.070Z,85
2022-12-18T09:32:41.745Z,85
2022-12-18T09:33:22.171Z,80
2022-12-18T09:37:25.475Z,90
2022-12-18T09:38:06.127Z,90
2022-12-18T09:38:46.658Z,90
2022-12-18T09:39:27.163Z,90
2022-12-18T09:40:07.719Z,90
2022-12-18T09:40:48.282Z,90
2022-12-18T09:41:28.837Z,90
2022-12-18T09:42:09.372Z,90
2022-12-18T09:42:49.920Z,90
2022-12-18T09:47:04.488Z,100
2022-12-18T09:47:45.159Z,100
2022-12-18T09:48:25.559Z,105
2022-12-18T09:49:06.083Z,110
2022-12-18T09:53:09.410Z,115
2022-12-18T09:53:49.894Z,115
2022-12-18T09:54:30.407Z,115
2022-12-18T09:55:10.959Z,115
2022-12-18T09:55:51.510Z,120
2022-12-18T09:56:32.997Z,120
2022-12-18T09:57:13.638Z,120
2022-12-18T10:00:49.445Z,120
2022-12-18T10:01:37.869Z,130
2022-12-18T10:02:10.608Z,130
2022-12-18T10:02:51.308Z,130
2022-12-18T10:06:25.223Z,140
2022-12-18T10:07:09.240Z,145
2022-12-18T10:07:46.282Z,145
2022-12-18T10:08:26.873Z,150
2022-12-18T10:11:20.905Z,155
2022-12-18T10:12:01.443Z,160
2022-12-18T10:12:41.979Z,160
2022-12-18T10:13:23.328Z,165
2022-12-18T10:15:36.040Z,175
2022-12-18T10:16:17.555Z,170
2022-12-18T10:16:58.074Z,170
2022-12-18T10:17:38.626Z,170
2022-12-18T10:20:21.586Z,165
2022-12-18T10:21:02.126Z,170
2022-12-18T10:21:42.693Z,175
2022-12-18T10:22:23.244Z,170
2022-12-18T10:23:03.845Z,180
2022-12-18T10:23:48.135Z,170
2022-12-18T10:24:24.908Z,165
2022-12-18T10:27:03.518Z,165
2022-12-18T10:27:44.097Z,175
2022-12-18T10:28:24.622Z,175
2022-12-18T10:29:05.779Z,170
2022-12-18T10:32:39.169Z,165
2022-12-18T10:33:19.686Z,160
2022-12-18T10:34:00.225Z,160
2022-12-18T10:34:41.557Z,165
2022-12-18T10:36:55.181Z,165
2022-12-18T10:37:35.702Z,160
2022-12-18T10:38:16.242Z,165
2022-12-18T10:38:59.603Z,180
2022-12-18T10:41:12.630Z,170
2022-12-18T10:41:53.282Z,165
2022-12-18T10:42:33.875Z,170
2022-12-18T10:43:14.391Z,170
2022-12-18T10:46:08.256Z,175
2022-12-18T10:46:49.484Z,175
2022-12-18T10:47:29.951Z,175
2022-12-18T10:48:11.238Z,180
2022-12-18T10:50:26.236Z,185
2022-12-18T10:51:13.563Z,185
2022-12-18T10:51:45.870Z,180
2022-12-18T10:52:26.418Z,175
2022-12-18T10:56:41.079Z,180
2022-12-18T10:57:21.641Z,175
2022-12-18T10:58:02.200Z,175
2022-12-18T10:58:43.057Z,175
2022-12-18T11:01:36.338Z,170
2022-12-18T11:02:16.980Z,170
2022-12-18T11:02:57.619Z,165
2022-12-18T11:03:38.059Z,155
2022-12-18T11:05:39.749Z,155
2022-12-18T11:09:15.602Z,175
2022-12-18T11:09:54.373Z,175
2022-12-18T11:10:35.071Z,180
2022-12-18T11:11:15.632Z,185
2022-12-18T11:14:09.720Z,200
2022-12-18T11:14:50.240Z,200
2022-12-18T11:15:30.784Z,205
2022-12-18T11:16:11.353Z,205
2022-12-18T11:20:14.513Z,195
2022-12-18T11:20:58.628Z,185
2022-12-18T11:21:36.265Z,190
2022-12-18T11:22:16.780Z,185
2022-12-18T11:22:57.301Z,175
2022-12-18T11:23:38.403Z,175
2022-12-18T11:24:18.924Z,170
2022-12-18T11:31:04.434Z,160
2022-12-18T11:31:44.930Z,160
2022-12-18T11:32:26.035Z,155
2022-12-18T11:33:06.587Z,155
2022-12-18T11:34:05.082Z,150
2022-12-18T11:34:29.372Z,150
2022-12-18T11:35:08.173Z,155
2022-12-18T11:35:48.727Z,150
2022-12-18T11:36:29.437Z,150
2022-12-18T11:40:44.044Z,155
2022-12-18T11:41:24.568Z,160
2022-12-18T11:42:05.091Z,160
2022-12-18T11:42:45.597Z,160
2022-12-18T11:46:48.795Z,160
2022-12-18T11:47:29.290Z,155
2022-12-18T11:48:09.843Z,155
2022-12-18T11:48:50.344Z,155
2022-12-18T11:49:30.841Z,150
2022-12-18T11:50:11.399Z,150
2022-12-18T11:50:52.792Z,150
2022-12-18T11:51:33.470Z,150
2022-12-18T11:58:31.636Z,145
2022-12-18T11:59:11.606Z,135
2022-12-18T11:59:52.128Z,135
2022-12-18T12:00:32.645Z,135
2022-12-18T12:04:48.822Z,130
2022-12-18T12:05:29.325Z,130
2022-12-18T12:06:09.886Z,135
2022-12-18T12:06:50.513Z,140
2022-12-18T12:10:53.577Z,130
2022-12-18T12:11:34.079Z,130
2022-12-18T12:12:14.632Z,130
2022-12-18T12:12:55.166Z,130
2022-12-18T12:13:35.667Z,130
2022-12-18T12:14:16.186Z,130
2022-12-18T12:14:56.726Z,130
2022-12-18T12:15:37.903Z,130
2022-12-18T12:21:43.713Z,125
2022-12-18T12:22:24.339Z,125
2022-12-18T12:23:04.740Z,125
2022-12-18T12:25:43.425Z,130
2022-12-18T12:26:23.949Z,130
2022-12-18T12:27:04.490Z,130
2022-12-18T12:27:44.981Z,130
2022-12-18T12:31:19.142Z,125
2022-12-18T12:31:59.677Z,130
2022-12-18T12:32:40.101Z,130
2022-12-18T12:33:20.682Z,130
2022-12-18T12:35:35.216Z,135
2022-12-18T12:36:15.759Z,135
2022-12-18T12:36:56.272Z,135
2022-12-18T12:37:36.991Z,135
2022-12-18T12:41:40.042Z,135
2022-12-18T12:42:20.544Z,135
2022-12-18T12:43:01.047Z,135
2022-12-18T12:43:46.200Z,130
2022-12-18T12:44:22.198Z,130
2022-12-18T12:45:02.735Z,130
2022-12-18T12:45:43.284Z,130
2022-12-18T12:46:23.832Z,130
2022-12-18T12:47:04.300Z,130
2022-12-18T12:47:44.811Z,130
2022-12-18T12:52:42.882Z,125
2022-12-18T12:53:24.077Z,125
2022-12-18T12:54:05.354Z,125
2022-12-18T12:56:44.733Z,125
2022-12-18T12:57:25.256Z,125
2022-12-18T12:58:05.820Z,125
2022-12-18T13:00:44.823Z,125
2022-12-18T13:01:25.465Z,125
2022-12-18T13:02:07.423Z,125
2022-12-18T13:04:47.319Z,120
2022-12-18T13:05:27.837Z,120
2022-12-18T13:06:08.387Z,120
2022-12-18T13:06:48.939Z,120
2022-12-18T13:10:52.286Z,115
2022-12-18T13:11:32.846Z,115
2022-12-18T13:12:14.218Z,115
2022-12-18T13:14:53.352Z,110
2022-12-18T13:15:34.275Z,110
2022-12-18T13:16:14.437Z,110
2022-12-18T13:16:54.947Z,110
2022-12-18T13:21:01.484Z,105
2022-12-18T13:21:38.915Z,105
2022-12-18T13:22:19.456Z,105
2022-12-18T13:23:00.079Z,105
2022-12-18T13:23:41.282Z,110
2022-12-18T13:24:21.214Z,105
2022-12-18T13:25:01.760Z,100
2022-12-18T13:25:42.332Z,100
2022-12-18T13:26:28.081Z,100
2022-12-18T13:29:16.498Z,95
2022-12-18T13:29:57.046Z,95
2022-12-18T13:30:37.592Z,95
2022-12-18T13:31:18.120Z,100
2022-12-18T13:33:31.175Z,95
2022-12-18T13:34:25.473Z,95
2022-12-18T13:34:52.311Z,95
2022-12-18T13:35:32.827Z,95
2022-12-18T13:39:47.604Z,95
2022-12-18T13:40:27.992Z,90
2022-12-18T13:41:08.521Z,90
2022-12-18T13:41:49.076Z,85
2022-12-18T13:45:23.082Z,80
2022-12-18T13:46:03.622Z,80
2022-12-18T13:46:44.164Z,80
2022-12-18T13:47:24.678Z,80
2022-12-18T13:50:40.568Z,80
2022-12-18T13:51:21.116Z,80
2022-12-18T13:52:02.227Z,80
2022-12-18T13:52:42.807Z,75
2022-12-18T13:55:25.760Z,75
2022-12-18T13:56:06.192Z,75
2022-12-18T13:56:46.899Z,75
2022-12-18T13:57:28.158Z,70
2022-12-18T13:58:08.689Z,70
2022-12-18T13:58:49.260Z,70
2022-12-18T13:59:29.761Z,70
2022-12-18T14:02:24.412Z,65
2022-12-18T14:03:05.553Z,65
2022-12-18T14:03:46.118Z,65
2022-12-18T14:04:26.586Z,65
2022-12-18T14:06:29.201Z,65
2022-12-18T14:07:09.810Z,60
2022-12-18T14:07:50.392Z,60
2022-12-18T14:08:30.943Z,60
2022-12-18T14:09:13.402Z,60
2022-12-18T14:09:55.557Z,60
2022-12-18T14:10:41.890Z,60
2022-12-18T14:16:10.095Z,60
2022-12-18T14:16:50.482Z,60
2022-12-18T14:17:31.069Z,55
2022-12-18T14:18:11.570Z,55
2022-12-18T14:21:35.279Z,55
2022-12-18T14:22:15.790Z,50
2022-12-18T14:22:56.385Z,50
2022-12-18T14:23:37.044Z,50
2022-12-18T14:24:17.603Z,50
2022-12-18T14:24:58.048Z,50
2022-12-18T14:25:38.664Z,50
2022-12-18T14:26:19.207Z,50
2022-12-18T14:31:44.888Z,40
2022-12-18T14:32:25.468Z,40
2022-12-18T14:33:05.976Z,40
2022-12-18T14:33:46.544Z,40
2022-12-18T14:34:27.079Z,40
2022-12-18T14:35:07.629Z,40
2022-12-18T14:35:48.194Z,40
2022-12-18T14:36:28.731Z,35
2022-12-18T14:42:46.280Z,30
2022-12-18T14:43:26.698Z,30
2022-12-18T14:44:07.228Z,30
2022-12-18T14:45:05.539Z,30
2022-12-18T14:48:50.900Z,25
2022-12-18T14:49:31.451Z,25
2022-12-18T14:50:12.004Z,25
2022-12-18T14:50:52.550Z,25
2022-12-18T14:51:33.077Z,25
2022-12-18T14:52:13.563Z,25
2022-12-18T14:52:54.109Z,20
2022-12-18T14:55:33.456Z,20
2022-12-18T14:56:13.993Z,20
2022-12-18T14:56:54.516Z,20
2022-12-18T14:57:35.031Z,20
2022-12-18T15:00:17.232Z,15
2022-12-18T15:00:57.792Z,15
2022-12-18T15:01:38.483Z,15
2022-12-18T15:02:18.867Z,15
2022-12-18T15:03:00.314Z,15
2022-12-18T15:03:41.093Z,15
2022-12-18T15:04:21.300Z,15
2022-12-18T15:05:01.992Z,10
2022-12-18T15:09:17.098Z,10
2022-12-18T15:09:57.617Z,10
2022-12-18T15:10:38.227Z,10
2022-12-18T15:11:18.755Z,10
2022-12-18T15:15:22.018Z,5
2022-12-18T15:16:02.716Z,5
2022-12-18T15:16:46.056Z,5
2022-12-18T15:17:23.681Z,5
2022-12-18T15:18:04.196Z,5
2022-12-18T15:18:44.743Z,5
2022-12-18T15:19:25.263Z,5
2022-12-18T15:20:05.828Z,5
2022-12-18T15:20:46.332Z,5
2022-12-18T15:28:12.180Z,0
2022-12-18T15:28:52.815Z,0
2022-12-18T15:29:34.016Z,0
2022-12-18T15:30:14.524Z,0
2022-12-18T15:30:55.072Z,0
2022-12-18T15:31:35.576Z,0
2022-12-18T15:32:16.118Z,0
2022-12-18T15:32:56.655Z,0
2022-12-18T15:38:21.794Z,0
2022-12-18T15:39:05.010Z,0
2022-12-18T15:41:40.755Z,0
2022-12-18T15:42:21.296Z,0
2022-12-18T15:43:01.850Z,0
2022-12-18T15:43:42.753Z,0
2022-12-18T15:47:05.779Z,0
2022-12-18T15:47:46.329Z,0
2022-12-18T15:48:26.831Z,0
2022-12-18T15:49:08.254Z,0
2022-12-18T15:49:48.793Z,0
2022-12-18T15:52:27.406Z,0
2022-12-18T15:53:07.731Z,0
2022-12-18T15:53:48.257Z,0
2022-12-18T15:54:29.383Z,0
2022-12-18T15:57:12.104Z,0
2022-12-18T15:57:53.408Z,0
2022-12-18T15:58:33.917Z,0
2022-12-18T15:59:14.464Z,0
2022-12-18T15:59:55.102Z,0
2022-12-18T16:02:33.578Z,0
2022-12-18T16:03:14.031Z,0
2022-12-18T16:03:54.540Z,0
2022-12-18T16:04:35.838Z,0
2022-12-18T16:07:58.556Z,0
2022-12-18T16:08:39.074Z,0
2022-12-18T16:09:24.583Z,0
2022-12-18T16:10:00.863Z,0
2022-12-18T16:10:40.628Z,0
2022-12-18T16:13:19.081Z,0
2022-12-18T16:13:59.659Z,0
2022-12-18T16:14:40.210Z,0
2022-12-18T16:15:24.417Z,0
2022-12-18T16:18:03.882Z,0
2022-12-18T16:18:44.472Z,0
2022-12-18T16:19:24.892Z,0
2022-12-18T16:20:05.432Z,0
2022-12-18T16:20:46.008Z,0
2022-12-18T16:21:30.703Z,0
2022-12-18T16:22:07.100Z,0
2022-12-18T16:24:46.140Z,0
2022-12-18T16:25:26.665Z,0
2022-12-18T16:26:07.222Z,0
2022-12-18T16:26:47.848Z,0
2022-12-18T16:30:22.361Z,0
2022-12-18T16:31:02.803Z,0
2022-12-18T16:31:43.286Z,0
2022-12-18T16:32:25.437Z,0
2022-12-18T16:34:40.038Z,0
2022-12-18T16:35:20.753Z,0
2022-12-18T16:36:01.294Z,0
2022-12-18T16:36:42.541Z,0
2022-12-18T16:39:11.048Z,0
2022-12-18T16:39:51.598Z,0
2022-12-18T16:40:32.117Z,0
2022-12-18T16:41:12.635Z,0
2022-12-18T16:43:27.145Z,0
2022-12-18T16:44:07.644Z,0
2022-12-18T16:44:48.159Z,0
2022-12-18T16:45:34.702Z,0
2022-12-18T16:49:32.220Z,0
2022-12-18T16:50:12.713Z,0
2022-12-18T16:50:53.273Z,0
2022-12-18T16:51:33.825Z,0
2022-12-18T16:52:14.360Z,0
2022-12-18T16:52:55.729Z,0
2022-12-18T16:53:36.436Z,0
2022-12-18T16:59:53.802Z,0
2022-12-18T17:00:34.322Z,0
2022-12-18T17:01:14.974Z,0
2022-12-18T17:01:56.688Z,0
2022-12-18T17:04:38.707Z,0
2022-12-18T17:05:19.231Z,0
2022-12-18T17:05:59.751Z,0
2022-12-18T17:06:40.232Z,0
2022-12-18T17:09:09.719Z,0
2022-12-18T17:09:51.226Z,0
2022-12-18T17:10:31.689Z,0
2022-12-18T17:11:12.236Z,0
2022-12-18T17:13:25.965Z,0
2022-12-18T17:14:05.879Z,0
2022-12-18T17:14:46.371Z,0
2022-12-18T17:15:26.927Z,0
2022-12-18T17:18:10.582Z,0
2022-12-18T17:18:51.127Z,0
2022-12-18T17:19:32.569Z,0
2022-12-18T17:20:13.094Z,0
2022-12-18T17:20:54.511Z,0
2022-12-18T17:24:34.971Z,0
2022-12-18T17:25:15.732Z,0
2022-12-18T17:25:56.254Z,0
2022-12-18T17:26:38.462Z,0
2022-12-18T17:28:53.030Z,0
2022-12-18T17:29:33.584Z,0
2022-12-18T17:30:14.126Z,0
2022-12-18T17:30:54.765Z,0
2022-12-18T17:35:10.093Z,0
2022-12-18T17:35:51.619Z,0
2022-12-18T17:36:33.888Z,0
2022-12-18T17:37:15.772Z,0
2022-12-18T17:39:43.998Z,0
2022-12-18T17:40:24.541Z,0
2022-12-18T17:41:05.114Z,0
2022-12-18T17:41:45.657Z,0
2022-12-18T17:45:09.103Z,0
2022-12-18T17:45:49.651Z,0
2022-12-18T17:46:30.173Z,0
2022-12-18T17:47:10.652Z,0
2022-12-18T17:47:54.251Z,0
2022-12-18T17:48:31.749Z,0
2022-12-18T17:49:12.209Z,0
2022-12-18T17:49:52.761Z,0
2022-12-18T17:50:33.204Z,0
2022-12-18T17:57:58.962Z,0
2022-12-18T17:58:39.508Z,0
2022-12-18T18:01:18.051Z,0
2022-12-18T18:01:58.681Z,0
2022-12-18T18:02:39.263Z,0
2022-12-18T18:03:20.071Z,0
2022-12-18T18:06:42.640Z,0
2022-12-18T18:09:24.712Z,0
2022-12-18T18:10:05.897Z,0
2022-12-18T18:10:49.705Z,0
2022-12-18T18:11:31.139Z,0
2022-12-18T18:12:19.236Z,0
2022-12-18T18:13:04.208Z,0
2022-12-18T18:13:53.691Z,0
2022-12-18T18:14:39.213Z,0
2022-12-18T18:17:20.612Z,0
2022-12-18T18:18:01.784Z,0
2022-12-18T18:18:42.478Z,0
2022-12-18T18:19:22.952Z,0
2022-12-18T18:21:41.529Z,0
2022-12-18T18:22:22.047Z,0
2022-12-18T18:23:02.559Z,0
2022-12-18T18:23:43.489Z,0
2022-12-18T18:27:47.376Z,0
2022-12-18T18:28:26.842Z,0
2022-12-18T18:31:05.414Z,0
2022-12-18T18:31:45.933Z,0
2022-12-18T18:32:26.459Z,0
2022-12-18T18:33:11.808Z,0
2022-12-18T18:37:10.167Z,0